Terminal Aerodrome Forecast
Issued by NWS Twin Cities, MN

Home | Current Version | Previous Version | Graphics & Text | Print | Product List | Glossary On
Versions: 1 2 3 4 5 6 7 8 9 10 11 12 13 14 15 16 17 18
402
FTUS43 KMPX 171131
TAFEAU
TAF
KEAU 171131Z 1712/1812 13010KT P6SM SCT020 BKN030
     FM171400 19008KT 5SM -RA BR OVC015
     FM171600 23010G17KT 4SM -SHRA BR OVC008
     FM172200 31014G21KT P6SM OVC020
     FM180300 32008KT P6SM SCT015 BKN040=

USA.gov is the U.S. government's official web portal to all federal, state and local government web resources and services.